Wednesday, November 22, 2017, 7:56 AM EST
Back to Local

KPSF, Pittsfield Municipal Airport

Location: Pittsfield, MA, United States Lat: 42.433
Local Time: 7:56 AM EST (12:56 GMT) Lon: -73.283
Time Zone: US/Eastern Elev: 1194 ft

Show me the last for .
Show Coded

Time T Td Feel RH Dir Speed Gust Alt SLP Vis Weather Sky Remarks
2017-11-22 06:54 36 31 - 81 - Calm - 29.87 29.86 10 CLR 6-hr Min Temp (7am): 34.0°F
6-hr Max Temp (7am): 46.0°F
2017-11-22 05:54 37 32 33 81 20° 5 - 29.89 29.88 10 CLR None
2017-11-22 04:54 38 32 - 78 - Calm - 29.91 29.90 10 CLR None
2017-11-22 03:54 40 32 - 73 - Calm - 29.92 29.91 10 CLR None
2017-11-22 02:54 38 31 33 75 270° 7 - 29.94 29.93 10 CLR None
2017-11-22 01:54 41 32 37 70 260° 6 - 29.94 29.92 10 CLR None
2017-11-22 00:54 42 30 38 62 250° 7 - 29.94 29.92 10 CLR 6-hr Min Temp (1am): 42.1°F
6-hr Max Temp (1am): 50.0°F
2017-11-21 23:54 47 30 39 51 210° 13 21 29.95 29.93 10 CLR 24-hr Min Temp (12am): 24.1°F
24-hr Max Temp (12am): 53.1°F
2017-11-21 22:54 47 29 39 49 230° 15 24 29.97 29.95 10 CLR None
2017-11-21 21:54 48 28 39 45 220° 16 31 29.95 29.93 10 CLR Peak wind: 31 mph (27 kts) from 210° at 35 min
2017-11-21 20:54 48 27 40 43 210° 14 24 29.95 29.95 10 CLR None
2017-11-21 19:54 49 27 41 42 200° 14 26 29.94 29.95 10 CLR None
2017-11-21 18:54 50 25 42 37 190° 17 28 29.93 29.94 10 CLR 6-hr Min Temp (7pm): 48.9°F
6-hr Max Temp (7pm): 53.1°F
2017-11-21 17:54 50 23 45 34 190° 14 - 29.94 29.95 10 CLR None
2017-11-21 16:54 50 23 45 34 190° 13 - 29.92 29.93 10 CLR None
2017-11-21 15:54 50 23 42 34 190° 15 28 29.91 29.92 10 CLR None
2017-11-21 14:54 52 23 - 31 190° 13 21 29.91 29.92 10 CLR None
2017-11-21 13:54 53 22 - 29 200° 17 22 29.91 29.91 10 CLR None
2017-11-21 12:54 51 23 - 33 200° 9 22 29.93 29.93 10 CLR 6-hr Min Temp (1pm): 24.1°F
6-hr Max Temp (1pm): 52.0°F
2017-11-21 11:54 50 24 44 35 190° 12 18 29.95 29.95 10 CLR None
2017-11-21 10:54 48 23 44 36 180° 9 - 29.98 29.99 10 CLR None
2017-11-21 09:54 43 23 35 44 Variable 6 17 30.01 30.02 10 CLR None
2017-11-21 08:54 35 27 - 72 - Calm - 30.03 30.05 10 CLR None

Support USWX by starting your Amazon purchase here.